Time;durP1;ratioP1;P1;durP2;ratioP2;P2;SDS_P1;SDS_P2;PMS_P1;PMS_P2;Temp;Humidity;BMP_temperature;BMP_pressure;BME280_temperature;BME280_humidity;BME280_pressure;Samples;Min_cycle;Max_cycle;Signal;HPM_P1;HPM_P2
2023/03/27 00:00:07;;;;;;;4.93;2.20;;;;;;;10.89;46.99;64090.31;5015067;28;20210;-55
2023/03/27 00:02:32;;;;;;;2.60;1.80;;;;;;;11.14;46.39;64117.69;5032934;28;20562;-54
2023/03/27 00:05:00;;;;;;;2.37;1.73;;;;;;;11.02;45.48;64102.03;5032795;28;20680;-53
2023/03/27 00:07:25;;;;;;;3.57;1.70;;;;;;;10.91;46.49;64093.03;5032902;28;20200;-54
2023/03/27 00:09:52;;;;;;;2.60;2.20;;;;;;;11.18;45.77;64119.00;5032889;28;20206;-53
2023/03/27 00:12:17;;;;;;;3.50;1.90;;;;;;;11.19;45.56;64120.09;5032861;28;20186;-55
2023/03/27 00:14:44;;;;;;;3.43;1.60;;;;;;;11.16;46.07;64119.88;5032478;28;20286;-57
2023/03/27 00:17:10;;;;;;;1.93;1.70;;;;;;;11.28;46.48;64133.03;5032602;28;20226;-57
2023/03/27 00:19:35;;;;;;;5.53;1.93;;;;;;;11.46;46.40;64152.75;5032811;28;20579;-58
2023/03/27 00:22:00;;;;;;;2.93;1.87;;;;;;;11.20;46.68;64121.19;5032629;28;20186;-54
2023/03/27 00:24:26;;;;;;;4.03;2.10;;;;;;;10.70;47.38;64070.06;5032716;28;20214;-54
2023/03/27 00:26:52;;;;;;;5.00;3.07;;;;;;;10.51;48.42;64049.25;5032439;28;20695;-55
2023/03/27 00:29:17;;;;;;;4.53;2.60;;;;;;;10.79;48.39;64076.84;5032508;28;20202;-54
2023/03/27 00:31:43;;;;;;;2.80;2.33;;;;;;;11.03;48.38;64105.63;5032664;28;20264;-55
2023/03/27 00:34:09;;;;;;;2.70;2.00;;;;;;;11.21;47.45;64125.34;5032469;28;20209;-54
2023/03/27 00:36:34;;;;;;;3.67;2.60;;;;;;;11.13;47.66;64113.53;5032453;28;20185;-53
2023/03/27 00:39:00;;;;;;;5.00;2.77;;;;;;;10.98;48.08;64100.16;5032455;28;20216;-54
2023/03/27 00:41:26;;;;;;;6.13;2.80;;;;;;;10.52;49.21;64050.34;5032218;28;20200;-54
2023/03/27 00:43:53;;;;;;;6.43;2.70;;;;;;;11.03;48.35;64105.63;5032278;28;20250;-53
2023/03/27 00:46:41;;;;;;;3.57;2.37;;;;;;;11.18;48.31;64122.06;5032125;28;20182;-53
2023/03/27 00:49:10;;;;;;;3.20;2.60;;;;;;;10.92;47.95;64094.16;5032219;28;20267;-54
2023/03/27 00:51:38;;;;;;;5.17;2.67;;;;;;;10.79;48.85;64077.38;5032028;28;20553;-55
2023/03/27 00:54:05;;;;;;;11.57;3.23;;;;;;;10.59;49.68;64057.47;5032039;28;20214;-53
2023/03/27 00:56:32;;;;;;;3.10;2.27;;;;;;;10.89;48.26;64090.31;5014271;28;20201;-54
2023/03/27 00:59:04;;;;;;;3.57;2.40;;;;;;;10.52;49.32;64047.28;5031976;28;20229;-58
2023/03/27 01:01:30;;;;;;;4.00;2.33;;;;;;;10.65;48.63;64064.03;5014156;28;20321;-59
2023/03/27 01:04:00;;;;;;;6.03;3.00;;;;;;;9.79;52.11;63967.94;5032043;28;20226;-58
2023/03/27 01:06:27;;;;;;;5.13;2.83;;;;;;;9.97;52.39;63990.69;5031850;28;20190;-54
2023/03/27 01:08:53;;;;;;;6.60;3.10;;;;;;;10.21;51.12;64013.34;5031668;28;20218;-54
2023/03/27 01:11:30;;;;;;;8.23;3.27;;;;;;;10.62;50.20;64060.75;5031849;28;20232;-57
2023/03/27 01:14:04;;;;;;;3.80;2.43;;;;;;;10.70;50.26;64067.00;5031812;28;20605;-54
2023/03/27 01:16:39;;;;;;;6.53;2.50;;;;;;;10.87;48.98;64086.16;5031715;28;20182;-54
2023/03/27 01:19:08;;;;;;;3.80;2.57;;;;;;;10.72;48.96;64072.25;5031654;28;20305;-53
2023/03/27 01:22:04;;;;;;;5.80;2.47;;;;;;;10.42;50.44;64039.41;5031719;28;20270;-57
2023/03/27 01:24:54;;;;;;;5.20;2.70;;;;;;;10.70;49.35;64067.00;5031664;28;20224;-54
2023/03/27 01:27:29;;;;;;;5.57;2.67;;;;;;;10.47;49.98;64041.81;5030114;28;20190;-54
2023/03/27 01:30:05;;;;;;;3.60;2.40;;;;;;;10.08;51.87;63997.13;5031461;28;20225;-54
2023/03/27 01:32:58;;;;;;;6.10;2.77;;;;;;;9.79;51.99;63968.50;5013414;28;20189;-53
2023/03/27 01:35:52;;;;;;;4.30;3.17;;;;;;;9.87;51.87;63977.25;5031017;28;20260;-54
2023/03/27 01:38:27;;;;;;;5.10;2.77;;;;;;;9.89;52.08;63981.94;5031240;28;20186;-53
2023/03/27 01:41:04;;;;;;;5.53;3.00;;;;;;;10.25;51.56;64015.22;5030858;28;20221;-55
2023/03/27 01:43:34;;;;;;;6.07;3.33;;;;;;;10.19;52.91;64008.66;5031014;28;20233;-55
2023/03/27 01:46:19;;;;;;;4.27;2.67;;;;;;;10.45;51.38;64037.09;5013475;28;20695;-53
2023/03/27 01:49:04;;;;;;;4.33;2.87;;;;;;;10.54;51.46;64049.47;5031136;28;20186;-55
2023/03/27 01:51:37;;;;;;;6.03;3.27;;;;;;;10.73;51.05;64070.81;5031053;28;20300;-56
2023/03/27 01:54:19;;;;;;;7.63;3.13;;;;;;;10.70;51.26;64064.47;5031020;28;20299;-53
2023/03/27 01:57:01;;;;;;;5.93;2.87;;;;;;;10.94;51.61;64096.34;5030727;28;20640;-53
2023/03/27 01:59:30;;;;;;;4.83;2.83;;;;;;;10.47;51.19;64044.31;5030987;28;20226;-54
2023/03/27 02:02:10;;;;;;;5.13;3.33;;;;;;;10.46;52.11;64038.19;5030719;28;20260;-53
2023/03/27 02:05:01;;;;;;;6.40;3.47;;;;;;;10.64;51.89;64060.44;5029758;28;20248;-54
2023/03/27 02:07:42;;;;;;;5.33;3.20;;;;;;;10.39;51.01;64035.56;5030658;28;20183;-53
2023/03/27 02:10:14;;;;;;;4.33;3.00;;;;;;;10.41;51.35;64032.72;5031058;28;20214;-54
2023/03/27 02:12:46;;;;;;;6.33;3.50;;;;;;;10.06;52.39;64000.53;5030725;28;20273;-54
2023/03/27 02:15:19;;;;;;;5.67;3.40;;;;;;;10.09;53.11;64001.31;5030671;28;20680;-54
2023/03/27 02:17:56;;;;;;;6.83;4.20;;;;;;;10.16;52.86;64007.91;5030412;28;20182;-55
2023/03/27 02:20:23;;;;;;;7.40;4.70;;;;;;;10.35;53.01;64031.75;5038136;22;20237;-55
2023/03/27 02:22:48;;;;;;;7.67;4.77;;;;;;;10.80;52.26;64075.97;5030446;28;20194;-56
2023/03/27 02:25:32;;;;;;;9.57;5.13;;;;;;;10.83;52.56;64084.28;5030284;28;20611;-55
2023/03/27 02:28:07;;;;;;;10.43;5.20;;;;;;;10.83;52.06;64084.28;5030332;28;20197;-54
2023/03/27 02:31:07;;;;;;;8.10;5.20;;;;;;;10.88;51.96;64084.19;5030742;28;20216;-55
2023/03/27 02:33:51;;;;;;;8.43;5.10;;;;;;;10.63;52.77;64064.34;5030088;28;20680;-53
2023/03/27 02:36:53;;;;;;;9.07;5.80;;;;;;;10.55;52.68;64053.09;5030255;28;20319;-54
2023/03/27 02:39:47;;;;;;;10.80;6.20;;;;;;;10.17;53.97;64011.50;5035825;28;20273;-54
2023/03/27 02:42:28;;;;;;;13.70;5.97;;;;;;;10.10;55.00;64002.41;5017575;28;20233;-53
2023/03/27 02:45:22;;;;;;;9.73;6.10;;;;;;;10.38;54.30;64031.97;5036782;28;20687;-54
2023/03/27 02:48:03;;;;;;;7.23;5.13;;;;;;;10.70;53.29;64069.50;5014829;28;20209;-53
2023/03/27 02:50:45;;;;;;;8.80;5.70;;;;;;;10.67;53.71;64066.22;5019398;28;20260;-56
2023/03/27 02:53:16;;;;;;;11.73;5.73;;;;;;;10.36;54.30;64029.78;5036952;28;20280;-57
2023/03/27 02:55:49;;;;;;;10.10;6.43;;;;;;;10.41;54.58;64037.75;5036899;28;20250;-58
2023/03/27 02:58:23;;;;;;;13.07;7.00;;;;;;;10.05;54.82;63999.44;5019065;28;20200;-54
2023/03/27 03:00:49;;;;;;;12.30;6.53;;;;;;;10.21;54.28;64013.91;5036752;28;20245;-57
2023/03/27 03:03:19;;;;;;;10.07;6.80;;;;;;;10.16;54.81;64007.91;5036744;28;20284;-55
2023/03/27 03:05:45;;;;;;;18.00;7.63;;;;;;;9.49;57.08;63935.13;5036938;28;20213;-59
2023/03/27 03:08:11;;;;;;;11.00;6.47;;;;;;;9.60;57.94;63947.16;5036787;28;20561;-57
2023/03/27 03:10:47;;;;;;;13.87;6.80;;;;;;;9.56;57.08;63945.84;5036678;28;20232;-54
2023/03/27 03:13:16;;;;;;;11.17;6.90;;;;;;;9.81;57.09;63973.19;5036700;28;20255;-54
2023/03/27 03:15:42;;;;;;;8.47;6.20;;;;;;;10.22;73.95;64015.00;5037126;28;20225;-53
2023/03/27 03:18:07;;;;;;;14.20;6.90;;;;;;;10.12;59.86;64004.59;5036728;28;20182;-59
2023/03/27 03:20:33;;;;;;;12.37;6.67;;;;;;;9.92;59.39;63985.22;5036537;28;20293;-54
2023/03/27 03:22:59;;;;;;;12.37;6.07;;;;;;;9.52;59.42;63940.94;5036446;28;20252;-58
2023/03/27 03:25:25;;;;;;;13.30;6.73;;;;;;;9.32;59.55;63920.16;5036625;28;20230;-58
2023/03/27 03:27:56;;;;;;;11.77;6.80;;;;;;;9.27;60.10;63912.16;5018609;28;20595;-56
2023/03/27 03:30:26;;;;;;;10.30;6.27;;;;;;;9.68;60.08;63956.47;5036446;28;20218;-53
2023/03/27 03:32:53;;;;;;;12.17;6.93;;;;;;;9.25;61.40;63909.47;5036546;28;20248;-55
2023/03/27 03:35:20;;;;;;;12.70;6.83;;;;;;;9.07;61.29;63889.78;5036315;28;20205;-59
2023/03/27 03:37:49;;;;;;;14.27;6.27;;;;;;;9.28;60.98;63915.25;5036299;28;20221;-54
2023/03/27 03:40:15;;;;;;;10.43;6.33;;;;;;;9.50;60.37;63934.25;5036735;28;20578;-56
2023/03/27 03:42:45;;;;;;;15.87;6.50;;;;;;;9.47;59.74;63936.03;5036458;28;20282;-54
2023/03/27 03:45:11;;;;;;;8.37;5.10;;;;;;;9.53;57.81;63942.03;5035944;28;20218;-54
2023/03/27 03:47:36;;;;;;;11.03;5.67;;;;;;;9.77;58.34;63971.34;5036217;28;20194;-54
2023/03/27 03:50:02;;;;;;;9.40;5.83;;;;;;;9.47;59.55;63936.03;5033390;28;20645;-54
2023/03/27 03:52:27;;;;;;;10.63;5.90;;;;;;;9.10;60.32;63890.53;5032954;28;20202;-53
2023/03/27 03:54:52;;;;;;;10.70;6.60;;;;;;;8.84;61.69;63867.72;5032748;28;20726;-54
2023/03/27 03:57:18;;;;;;;11.70;6.33;;;;;;;8.91;61.30;63872.28;5032700;28;20661;-53
2023/03/27 03:59:45;;;;;;;9.73;6.47;;;;;;;9.23;60.91;63907.28;5032554;28;20214;-55
2023/03/27 04:02:11;;;;;;;16.00;10.00;;;;;;;9.55;61.38;63939.19;5032616;28;20221;-53
2023/03/27 04:04:37;;;;;;;17.87;6.37;;;;;;;9.26;59.99;63908.03;5032611;28;20673;-53
2023/03/27 04:07:04;;;;;;;9.23;6.50;;;;;;;9.01;60.91;63883.22;5032573;28;20194;-53
2023/03/27 04:09:30;;;;;;;13.50;6.60;;;;;;;9.03;61.29;63887.94;5032662;28;20210;-54
2023/03/27 04:11:55;;;;;;;12.53;6.03;;;;;;;8.91;61.63;63874.78;5032698;28;20237;-54
2023/03/27 04:14:21;;;;;;;13.23;6.23;;;;;;;8.77;61.12;63860.03;5032532;28;20779;-52
2023/03/27 04:16:46;;;;;;;9.20;6.13;;;;;;;8.80;61.50;63860.81;5032578;28;20357;-52
2023/03/27 04:19:12;;;;;;;16.37;6.13;;;;;;;9.13;61.76;63896.34;5032639;28;20209;-54
2023/03/27 04:21:37;;;;;;;11.53;6.07;;;;;;;8.95;59.60;63879.72;5032418;28;20193;-54
2023/03/27 04:24:03;;;;;;;11.33;5.67;;;;;;;9.32;59.63;63917.09;5032013;28;20226;-59
2023/03/27 04:26:28;;;;;;;7.40;4.93;;;;;;;9.06;58.69;63889.22;5032884;28;20240;-63
2023/03/27 04:28:54;;;;;;;8.73;5.60;;;;;;;8.98;59.25;63883.00;5032583;28;20206;-62
2023/03/27 04:31:19;;;;;;;11.00;5.70;;;;;;;8.94;58.47;63875.56;5032502;28;20616;-58
2023/03/27 04:33:50;;;;;;;9.50;5.07;;;;;;;9.13;58.48;63896.34;5032192;28;20221;-59
2023/03/27 04:36:16;;;;;;;9.40;5.47;;;;;;;9.16;58.10;63902.13;5032211;28;20193;-59
2023/03/27 04:38:42;;;;;;;13.67;6.33;;;;;;;9.51;57.50;63937.88;5032276;28;20194;-54
2023/03/27 04:41:07;;;;;;;12.23;6.00;;;;;;;9.56;57.71;63942.78;5032139;28;20198;-54
2023/03/27 04:43:35;;;;;;;15.47;6.57;;;;;;;9.89;57.46;63978.88;5031887;28;20224;-54
2023/03/27 04:46:02;;;;;;;11.07;5.73;;;;;;;9.54;57.73;63938.09;5031870;28;20191;-54
2023/03/27 04:48:28;;;;;;;12.60;6.23;;;;;;;9.52;58.91;63938.41;5032169;28;20666;-53
2023/03/27 04:50:54;;;;;;;11.30;5.40;;;;;;;9.89;56.42;63981.94;5031953;28;20218;-53
2023/03/27 04:53:20;;;;;;;12.63;5.93;;;;;;;9.87;56.89;63976.69;5031818;28;20566;-54
2023/03/27 04:55:49;;;;;;;8.50;5.50;;;;;;;9.96;56.63;63987.09;5031793;28;20225;-58
2023/03/27 04:58:16;;;;;;;13.53;5.40;;;;;;;9.32;57.97;63917.09;5031929;28;20265;-58
2023/03/27 05:00:49;;;;;;;10.60;5.67;;;;;;;10.08;72.84;64000.22;5031368;28;20224;-58
2023/03/27 05:03:20;;;;;;;9.63;5.50;;;;;;;10.27;56.39;64019.91;5031598;28;20191;-57
2023/03/27 05:05:48;;;;;;;13.30;5.43;;;;;;;9.74;56.76;63962.47;5031589;28;20794;-58
2023/03/27 05:08:14;;;;;;;10.40;5.40;;;;;;;9.59;58.74;63948.59;5032039;28;20195;-58
2023/03/27 05:10:41;;;;;;;13.83;5.23;;;;;;;10.24;56.92;64019.69;5032069;28;20214;-60
2023/03/27 05:13:07;;;;;;;12.17;5.47;;;;;;;9.94;55.95;63987.41;5032019;28;20186;-59
2023/03/27 05:15:32;;;;;;;14.57;5.63;;;;;;;10.11;56.33;64003.53;5031672;28;20700;-58
2023/03/27 05:17:59;;;;;;;10.80;5.10;;;;;;;10.54;56.32;64052.00;5031614;28;20332;-59
2023/03/27 05:20:26;;;;;;;9.60;5.30;;;;;;;10.02;56.07;63991.13;5030335;28;20224;-59
2023/03/27 05:22:53;;;;;;;13.33;5.80;;;;;;;9.87;55.66;63977.25;5031761;28;20276;-56
2023/03/27 05:25:19;;;;;;;10.03;5.30;;;;;;;9.90;55.84;63982.47;5031432;28;20225;-56
2023/03/27 05:27:48;;;;;;;11.37;5.37;;;;;;;10.20;56.09;64012.28;5031805;28;20190;-56
2023/03/27 05:30:16;;;;;;;10.30;4.93;;;;;;;10.37;57.25;64033.94;5031851;28;20213;-58
2023/03/27 05:32:50;;;;;;;9.67;4.93;;;;;;;10.32;54.71;64025.41;5031377;28;20209;-58
2023/03/27 05:35:17;;;;;;;10.10;4.80;;;;;;;10.29;54.06;64024.63;5031756;28;20221;-59
2023/03/27 05:37:46;;;;;;;16.77;5.70;;;;;;;11.08;68.36;64108.59;5013426;28;20190;-59
2023/03/27 05:40:14;;;;;;;13.77;5.53;;;;;;;14.23;69.99;64451.94;5031286;28;20214;-54
2023/03/27 05:42:45;;;;;;;9.23;4.97;;;;;;;14.64;58.99;64497.03;5031208;28;20668;-55
2023/03/27 05:45:12;;;;;;;9.80;4.93;;;;;;;14.23;45.94;64451.94;5031117;28;20222;-58
2023/03/27 05:47:43;;;;;;;9.77;5.00;;;;;;;14.97;45.85;64535.81;5031106;28;20190;-53
2023/03/27 05:50:09;;;;;;;14.88;4.50;;;;;;;14.97;44.50;64533.28;5031631;28;20218;-53
2023/03/27 05:52:35;;;;;;;10.27;5.32;;;;;;;15.03;43.69;64539.88;5031176;28;20200;-56
2023/03/27 05:55:00;;;;;;;7.45;5.03;;;;;;;15.06;43.34;64542.63;5031442;28;20222;-59
2023/03/27 05:57:26;;;;;;;10.73;5.82;;;;;;;15.14;42.71;64549.44;5031038;28;20194;-56
2023/03/27 05:59:51;;;;;;;7.57;3.55;;;;;;;15.61;39.56;64600.06;5031353;28;20198;-58
2023/03/27 06:02:17;;;;;;;8.18;3.60;;;;;;;14.53;41.72;64482.41;5031405;28;20197;-54
2023/03/27 06:04:43;;;;;;;7.20;2.90;;;;;;;13.82;42.19;64404.38;5030861;28;20565;-56
2023/03/27 06:07:09;;;;;;;3.15;2.13;;;;;;;13.65;41.83;64388.25;5030917;28;20273;-54
2023/03/27 06:09:35;;;;;;;4.32;2.88;;;;;;;13.05;44.51;64323.47;5031071;28;20341;-59
2023/03/27 06:12:00;;;;;;;2.95;2.00;;;;;;;12.91;45.35;64307.56;5030513;28;20182;-58
2023/03/27 06:14:26;;;;;;;4.40;1.98;;;;;;;12.51;43.91;64264.22;5030529;28;20589;-59
2023/03/27 06:16:51;;;;;;;9.18;2.20;;;;;;;12.32;44.48;64245.94;5030796;28;20189;-57
2023/03/27 06:19:17;;;;;;;8.37;2.80;;;;;;;12.34;46.14;64246.13;5030908;28;20206;-59
2023/03/27 06:21:43;;;;;;;7.97;2.53;;;;;;;12.33;46.69;64245.03;5013117;28;20186;-59
2023/03/27 06:24:09;;;;;;;4.80;1.80;;;;;;;12.19;45.51;64229.13;5031036;28;20225;-59
2023/03/27 06:26:34;;;;;;;1.67;1.50;;;;;;;12.06;45.07;64215.44;5013168;28;20182;-60
2023/03/27 06:29:00;;;;;;;1.67;1.33;;;;;;;11.98;45.79;64206.13;5030629;28;20710;-60
2023/03/27 06:31:26;;;;;;;1.97;1.77;;;;;;;11.87;45.60;64196.59;5030764;28;20186;-58
2023/03/27 06:33:52;;;;;;;4.77;1.33;;;;;;;11.72;45.45;64178.72;5030548;28;20707;-57
2023/03/27 06:36:18;;;;;;;4.63;1.77;;;;;;;11.85;45.64;64191.88;5013106;28;20182;-57
2023/03/27 06:38:44;;;;;;;2.60;1.77;;;;;;;11.77;46.28;64184.22;5012918;28;20247;-54
2023/03/27 06:41:09;;;;;;;5.27;1.97;;;;;;;11.76;47.14;64185.63;5030967;28;20192;-58
2023/03/27 06:43:35;;;;;;;4.83;1.90;;;;;;;12.03;45.84;64211.59;5030375;28;20189;-59
2023/03/27 06:46:01;;;;;;;2.77;1.77;;;;;;;12.22;46.71;64234.97;5030532;28;20186;-58
2023/03/27 06:48:27;;;;;;;6.33;2.27;;;;;;;12.41;46.61;64253.25;5030470;28;20179;-58
2023/03/27 06:50:53;;;;;;;3.63;2.30;;;;;;;12.23;47.09;64231.00;5030386;28;20198;-59
2023/03/27 06:53:19;;;;;;;3.03;2.23;;;;;;;12.16;47.09;64225.88;5030199;28;20661;-57
2023/03/27 06:55:46;;;;;;;3.33;1.70;;;;;;;12.29;46.39;64237.59;5029969;28;20242;-57
2023/03/27 06:58:15;;;;;;;3.67;1.47;;;;;;;12.42;46.56;64251.84;5030335;28;20289;-55
2023/03/27 07:00:41;;;;;;;2.63;1.87;;;;;;;12.41;48.62;64253.81;5030581;28;20213;-54
2023/03/27 07:03:09;;;;;;;3.17;2.23;;;;;;;12.38;49.09;64247.47;5030359;28;20194;-54
2023/03/27 07:05:37;;;;;;;4.40;2.27;;;;;;;12.57;49.76;64271.38;5030407;28;20229;-58
2023/03/27 07:08:05;;;;;;;2.80;2.07;;;;;;;12.70;49.99;64284.53;5030188;28;20209;-59
2023/03/27 07:10:31;;;;;;;3.67;1.67;;;;;;;12.67;49.10;64281.78;5030595;28;20271;-57
2023/03/27 07:12:57;;;;;;;4.27;2.07;;;;;;;12.75;47.88;64290.56;5030236;28;20179;-56
2023/03/27 07:15:23;;;;;;;3.27;1.80;;;;;;;12.79;49.45;64292.41;5029965;28;20296;-58
2023/03/27 07:17:57;;;;;;;2.00;1.80;;;;;;;12.93;48.89;64312.81;5030297;28;20186;-61
2023/03/27 07:20:26;;;;;;;2.10;1.42;;;;;;;13.13;47.49;64332.25;5030457;28;20566;-58
2023/03/27 07:22:54;;;;;;;2.25;2.00;;;;;;;13.37;48.16;64358.06;5012189;28;20187;-59
2023/03/27 07:25:20;;;;;;;3.47;1.92;;;;;;;13.53;47.94;64375.09;5031718;28;20230;-55
2023/03/27 07:27:45;;;;;;;3.87;2.93;;;;;;;13.87;46.31;64412.41;5033722;28;20189;-57
2023/03/27 07:30:12;;;;;;;5.72;1.90;;;;;;;13.93;46.85;64419.00;5033664;28;20308;-61
2023/03/27 07:32:42;;;;;;;2.50;1.90;;;;;;;13.96;45.59;64425.38;5033327;28;20636;-59
2023/03/27 07:35:08;;;;;;;4.87;2.23;;;;;;;14.07;44.88;64431.84;5033560;28;20209;-58
2023/03/27 07:37:36;;;;;;;4.75;2.53;;;;;;;14.08;44.61;64438.00;5033381;28;20201;-59
2023/03/27 07:40:05;;;;;;;2.70;2.10;;;;;;;14.13;44.74;64440.97;5033058;28;20206;-59
2023/03/27 07:42:31;;;;;;;6.03;2.50;;;;;;;14.05;45.08;64432.19;5015272;28;20197;-56
2023/03/27 07:44:56;;;;;;;2.50;1.88;;;;;;;14.30;44.61;64459.66;5033467;28;20218;-58
2023/03/27 07:47:22;;;;;;;3.75;1.75;;;;;;;14.42;45.11;64472.84;5033217;28;20193;-57
2023/03/27 07:49:47;;;;;;;1.60;1.42;;;;;;;14.47;43.73;64480.88;5033431;28;20236;-53
2023/03/27 07:52:14;;;;;;;2.50;1.80;;;;;;;14.14;44.05;64442.06;5033153;28;20190;-57
2023/03/27 07:54:39;;;;;;;5.07;2.03;;;;;;;14.35;43.96;64464.59;5033206;28;20321;-58
2023/03/27 07:57:05;;;;;;;4.05;2.15;;;;;;;14.37;43.33;64467.34;5032913;28;20210;-59
2023/03/27 07:59:31;;;;;;;4.72;2.00;;;;;;;14.33;43.69;64462.97;5033008;28;20237;-58
2023/03/27 08:01:56;;;;;;;5.43;2.00;;;;;;;14.31;44.47;64458.22;5033082;28;20178;-54
2023/03/27 08:04:22;;;;;;;2.75;1.98;;;;;;;14.30;42.89;64457.13;5032638;28;20210;-54
2023/03/27 08:06:50;;;;;;;2.30;1.63;;;;;;;14.24;42.60;64453.59;5032902;28;20186;-55
2023/03/27 08:09:16;;;;;;;2.00;1.60;;;;;;;14.39;43.29;64472.09;5032924;28;20220;-56
2023/03/27 08:11:43;;;;;;;4.75;1.90;;;;;;;14.17;43.95;64442.81;5032811;28;20718;-58
2023/03/27 08:14:08;;;;;;;3.40;1.73;;;;;;;13.95;43.80;64424.28;5015123;28;20213;-55
2023/03/27 08:16:35;;;;;;;4.65;1.90;;;;;;;14.25;44.06;64454.16;5032820;28;20284;-57
2023/03/27 08:19:02;;;;;;;3.47;1.95;;;;;;;14.28;45.22;64454.94;5032741;28;20214;-53
2023/03/27 08:21:30;;;;;;;3.50;1.88;;;;;;;14.06;43.06;64433.25;5033239;28;20190;-57
2023/03/27 08:23:57;;;;;;;2.78;2.40;;;;;;;13.99;43.37;64425.59;5032494;28;20241;-55
2023/03/27 08:26:22;;;;;;;4.55;2.33;;;;;;;14.35;43.30;64465.16;5032756;28;20239;-58
2023/03/27 08:28:52;;;;;;;5.90;1.85;;;;;;;14.48;43.57;64479.44;5032562;28;20623;-57
2023/03/27 08:31:18;;;;;;;3.15;2.13;;;;;;;14.27;44.90;64456.34;5032734;28;20217;-55
2023/03/27 08:33:44;;;;;;;2.58;2.20;;;;;;;14.57;43.22;64488.78;5032512;28;20198;-54
2023/03/27 08:36:11;;;;;;;6.43;2.33;;;;;;;14.45;42.60;64473.59;5032136;28;20301;-54
2023/03/27 08:38:38;;;;;;;5.85;2.10;;;;;;;14.19;43.77;64450.66;5032385;28;20217;-53
2023/03/27 08:41:04;;;;;;;3.38;2.00;;;;;;;14.47;43.32;64480.31;5032317;28;20706;-55
2023/03/27 08:43:37;;;;;;;8.35;2.90;;;;;;;14.43;43.61;64470.84;5032233;28;20186;-59
2023/03/27 08:46:17;;;;;;;7.60;2.83;;;;;;;14.18;43.84;64447.00;5032521;28;20244;-59
2023/03/27 08:48:56;;;;;;;5.13;2.38;;;;;;;14.20;42.66;64448.66;5032297;28;20202;-59
2023/03/27 08:51:26;;;;;;;4.25;2.28;;;;;;;14.27;43.29;64456.91;5032259;28;20189;-59
2023/03/27 08:54:08;;;;;;;3.87;1.87;;;;;;;13.99;44.35;64428.13;5032280;28;20226;-59
2023/03/27 08:56:33;;;;;;;4.35;1.63;;;;;;;14.15;45.51;64440.63;5032186;28;20273;-58
2023/03/27 08:59:00;;;;;;;7.80;2.50;;;;;;;14.37;45.07;64467.34;5032140;28;20540;-58
2023/03/27 09:01:43;;;;;;;6.13;2.17;;;;;;;14.25;47.63;64452.16;5032037;28;20190;-58
2023/03/27 09:04:21;;;;;;;3.67;2.17;;;;;;;14.24;46.56;64453.59;5032229;28;20227;-57
2023/03/27 09:06:49;;;;;;;3.40;2.42;;;;;;;14.43;46.63;64471.41;5032082;28;20261;-58
2023/03/27 09:09:33;;;;;;;2.58;1.63;;;;;;;14.75;46.15;64506.56;5014220;28;20706;-60
2023/03/27 09:12:16;;;;;;;2.80;2.08;;;;;;;15.06;46.28;64542.63;5032083;28;20201;-55
2023/03/27 09:14:56;;;;;;;4.20;2.00;;;;;;;15.11;47.49;64545.59;5032132;28;20218;-55
2023/03/27 09:17:31;;;;;;;2.77;2.33;;;;;;;15.09;45.66;64543.38;5031806;28;20190;-54
2023/03/27 09:20:18;;;;;;;3.58;2.60;;;;;;;14.99;43.58;64534.94;5014161;28;20217;-59
2023/03/27 09:22:51;;;;;;;4.55;2.13;;;;;;;15.05;45.06;64542.09;5031881;28;20580;-54
2023/03/27 09:25:33;;;;;;;3.70;2.17;;;;;;;15.11;44.10;64546.16;5031832;28;20293;-56
2023/03/27 09:28:00;;;;;;;4.53;2.47;;;;;;;15.31;43.27;64569.59;5031906;28;20647;-54
2023/03/27 09:30:28;;;;;;;8.43;3.15;;;;;;;15.28;46.16;64564.28;5031349;28;20206;-54
2023/03/27 09:32:58;;;;;;;5.85;2.80;;;;;;;15.03;47.94;64537.34;5031400;28;20235;-54
2023/03/27 09:35:24;;;;;;;5.28;2.92;;;;;;;14.82;49.69;64519.34;5031184;28;20720;-54
2023/03/27 09:37:59;;;;;;;3.90;2.50;;;;;;;15.18;63.04;64555.28;5031441;28;20295;-53
2023/03/27 09:40:53;;;;;;;3.97;2.60;;;;;;;15.82;49.43;64623.72;5030112;28;20214;-61
2023/03/27 09:43:32;;;;;;;6.55;3.25;;;;;;;15.09;50.90;64549.03;5014005;28;20190;-54
2023/03/27 09:45:58;;;;;;;3.40;2.90;;;;;;;14.71;51.95;64502.19;5031296;28;20202;-52
2023/03/27 09:48:37;;;;;;;6.28;3.67;;;;;;;14.37;52.17;64469.34;5030122;28;20182;-54
2023/03/27 09:51:04;;;;;;;5.88;3.15;;;;;;;14.47;52.24;64477.78;5031455;28;20197;-54
2023/03/27 09:53:30;;;;;;;2.78;2.50;;;;;;;14.57;48.93;64489.31;5031143;28;20233;-59
2023/03/27 09:55:58;;;;;;;5.88;3.17;;;;;;;14.24;49.02;64453.06;5013515;28;20218;-59
2023/03/27 09:58:27;;;;;;;4.22;2.53;;;;;;;14.55;48.66;64489.66;5031487;28;20179;-57
2023/03/27 10:01:12;;;;;;;2.80;2.40;;;;;;;14.55;48.58;64487.13;5031154;28;20306;-53
2023/03/27 10:03:58;;;;;;;5.90;2.30;;;;;;;14.70;48.13;64503.63;5031206;28;20186;-58
2023/03/27 10:06:25;;;;;;;2.58;2.38;;;;;;;14.81;47.96;64515.69;5013269;28;20194;-58
2023/03/27 10:08:51;;;;;;;7.82;2.60;;;;;;;14.70;49.06;64503.06;5031226;28;20206;-58
2023/03/27 10:11:21;;;;;;;3.97;2.65;;;;;;;14.71;49.96;64504.72;5031059;28;20263;-57
2023/03/27 10:39:42;;;;;;;1.90;1.80;;;;;;;14.97;47.10;64533.28;5030570;28;20233;-58
2023/03/27 10:42:08;;;;;;;3.80;1.92;;;;;;;15.11;46.48;64550.66;5030583;28;20198;-59
2023/03/27 10:44:36;;;;;;;1.93;1.60;;;;;;;14.96;46.08;64531.66;5030559;28;20228;-58
2023/03/27 10:47:04;;;;;;;4.70;1.70;;;;;;;14.97;46.27;64533.28;5030720;28;20179;-58
2023/03/27 10:50:08;;;;;;;3.33;1.70;;;;;;;15.50;45.79;64590.50;5030777;28;20217;-57
2023/03/27 10:52:42;;;;;;;6.05;1.98;;;;;;;15.68;47.74;64612.81;5030526;28;20186;-58
2023/03/27 10:55:21;;;;;;;3.65;2.03;;;;;;;15.79;47.57;64622.41;5030691;28;20240;-59
2023/03/27 10:57:52;;;;;;;1.90;1.80;;;;;;;15.78;46.94;64621.28;5030344;28;20193;-57
2023/03/27 11:00:31;;;;;;;3.58;2.30;;;;;;;15.85;47.52;64627.00;5015433;28;20228;-58
2023/03/27 11:03:22;;;;;;;2.10;1.30;;;;;;;16.00;46.16;64642.94;5034035;28;20249;-59
2023/03/27 11:05:52;;;;;;;6.28;1.83;;;;;;;15.97;45.83;64642.22;5033816;28;20608;-58
2023/03/27 11:08:48;;;;;;;2.40;2.05;;;;;;;15.96;46.11;64639.09;5034065;28;20663;-56
2023/03/27 11:11:24;;;;;;;4.38;1.85;;;;;;;15.99;45.78;64644.41;5005334;28;20198;-57
2023/03/27 11:13:50;;;;;;;3.45;1.70;;;;;;;16.03;44.59;64646.25;5033787;28;20217;-57
2023/03/27 11:16:31;;;;;;;2.28;1.42;;;;;;;15.71;44.17;64611.63;5033890;28;20178;-58
2023/03/27 11:19:09;;;;;;;3.05;1.60;;;;;;;15.49;44.78;64589.41;5033713;28;20212;-55
2023/03/27 11:21:49;;;;;;;3.15;1.88;;;;;;;15.16;44.81;64553.63;5034127;28;20216;-55
2023/03/27 11:24:25;;;;;;;1.98;1.67;;;;;;;15.36;44.40;64573.09;5033571;28;20245;-53
2023/03/27 11:27:19;;;;;;;1.50;1.40;;;;;;;15.08;45.51;64542.84;5033611;28;20209;-53
2023/03/27 11:30:01;;;;;;;4.22;1.63;;;;;;;14.65;47.95;64495.03;5033803;28;20225;-53
2023/03/27 11:32:55;;;;;;;3.17;1.52;;;;;;;14.18;52.19;64447.00;5033382;28;20193;-55
2023/03/27 11:35:27;;;;;;;2.35;1.67;;;;;;;13.64;54.40;64384.63;5033745;28;20214;-57
2023/03/27 11:38:00;;;;;;;6.77;1.53;;;;;;;13.53;56.17;64372.53;5033443;28;20708;-52
2023/03/27 11:40:44;;;;;;;1.50;1.40;;;;;;;13.49;58.35;64371.78;4999327;28;20601;-54
2023/03/27 12:10:12;;;;;;;3.17;1.70;;;;;;;10.80;92.03;64078.50;5032695;28;20240;-56
2023/03/27 12:12:44;;;;;;;1.80;1.20;;;;;;;9.78;97.66;63966.84;5032932;28;20182;-56
2023/03/27 12:15:28;;;;;;;4.80;1.37;;;;;;;9.33;98.91;63918.72;5033251;28;20241;-56
2023/03/27 12:18:11;;;;;;;4.07;0.60;;;;;;;8.57;99.99;63837.66;5032906;28;20197;-57
2023/03/27 12:21:04;;;;;;;3.57;0.70;;;;;;;8.21;100.00;63796.91;5032764;28;20297;-56
2023/03/27 12:23:49;;;;;;;4.07;0.50;;;;;;;7.97;100.00;63773.22;5033087;28;20602;-59
2023/03/27 12:26:49;;;;;;;2.43;0.60;;;;;;;7.77;100.00;63748.88;5032884;28;20206;-54
2023/03/27 12:29:18;;;;;;;3.30;0.60;;;;;;;7.59;100.00;63729.75;5000797;28;20703;-57
2023/03/27 12:32:11;;;;;;;0.83;0.40;;;;;;;7.55;100.00;63724.88;5033003;28;20660;-58
2023/03/27 12:34:54;;;;;;;0.60;0.40;;;;;;;7.54;100.00;63723.75;5032814;28;20236;-53
2023/03/27 12:41:12;;;;;;;3.07;0.57;;;;;;;7.45;100.00;63716.47;5032504;28;20314;-53
2023/03/27 12:43:42;;;;;;;0.60;0.60;;;;;;;7.38;100.00;63708.81;5032565;28;20281;-52
2023/03/27 12:46:23;;;;;;;2.20;0.50;;;;;;;7.43;100.00;63714.81;5032591;28;20293;-58
2023/03/27 12:49:20;;;;;;;0.77;0.50;;;;;;;7.55;100.00;63722.88;5032553;28;20428;-55